Terminal Aerodrome Forecast
Issued by NWS

Home | Current Version | Previous Version | Text Only | Print | Product List | Glossary On
Versions: 1 2 3 4 5 6 7 8 9 10 11 12 13 14 15 16 17 18 19
000
FTUS45 KGJT 291136
TAFRIL
TAF
KRIL 291136Z 2912/3012 14005KT P6SM FEW250
     FM291400 03005KT P6SM FEW250
     FM291900 32006KT P6SM FEW250
      TEMPO 2920/2924 31010G18KT
     FM300200 24006KT P6SM FEW250
     FM300400 15005KT P6SM FEW250=

USA.gov is the U.S. government's official web portal to all federal, state and local government web resources and services.